<?xml version="1.0" encoding="UTF-8" standalone="no" ?>
<gpx xmlns="http://www.topografix.com/GPX/1/1" xmlns:xsi="http://www.w3.org/2001/XMLSchema-instance" xsi:schemaLocation="http://www.topografix.com/GPX/1/1 http://www.topografix.com/GPX/1/1/gpx.xsd" version="1.1" creator="VisuGPX - https://www.visugpx.com">
  <metadata>
    <name>Le sentier de la Méridienne version longue</name>
  </metadata>
  <wpt lat="43.96368" lon="2.33393">
    <ele>395</ele>
    <name><![CDATA[Place de l'église]]></name>
  </wpt>
  <wpt lat="43.96189" lon="2.33001">
    <ele>391</ele>
    <name><![CDATA[À gauche. Quitter D70]]></name>
  </wpt>
  <wpt lat="43.9493" lon="2.32606">
    <ele>384</ele>
    <name><![CDATA[Chemin herbeux]]></name>
  </wpt>
  <wpt lat="43.94305" lon="2.31121">
    <ele>213</ele>
    <name><![CDATA[La Mélonié: à droite]]></name>
  </wpt>
  <wpt lat="43.94548" lon="2.31039">
    <ele>211</ele>
    <name><![CDATA[La Molinié : à droite]]></name>
  </wpt>
  <wpt lat="43.94772" lon="2.30943">
    <ele>219</ele>
    <name><![CDATA[Les Farguettes]]></name>
  </wpt>
  <wpt lat="43.94261" lon="2.30649">
    <ele>191</ele>
    <name><![CDATA[D700 : à gauche]]></name>
  </wpt>
  <wpt lat="43.9417" lon="2.30659">
    <ele>193</ele>
    <name><![CDATA[Route de la Molinié : à gauche]]></name>
  </wpt>
  <wpt lat="43.94249" lon="2.31043">
    <ele>205</ele>
    <name><![CDATA[À droite : chemin vers les bois]]></name>
  </wpt>
  <wpt lat="43.93705" lon="2.31401">
    <ele>320</ele>
    <name><![CDATA[À gauche puis à droite]]></name>
  </wpt>
  <wpt lat="43.93411" lon="2.31882">
    <ele>186</ele>
    <name><![CDATA[Pécotte: à gauche. D700]]></name>
  </wpt>
  <wpt lat="43.93569" lon="2.33183">
    <ele>196</ele>
    <name><![CDATA[ Franchir le pont sur l’Aygou]]></name>
  </wpt>
  <wpt lat="43.955" lon="2.35764">
    <ele>415</ele>
    <name><![CDATA[À gauche : le Périé]]></name>
  </wpt>
  <wpt lat="43.95611" lon="2.35494">
    <ele>410</ele>
    <name><![CDATA[À droite : chemin herbeux]]></name>
  </wpt>
  <wpt lat="43.96595" lon="2.33679">
    <ele>394</ele>
    <name><![CDATA[Route en face]]></name>
  </wpt>
  <wpt lat="43.96489" lon="2.33534">
    <ele>394</ele>
    <name><![CDATA[À gauche]]></name>
  </wpt>
  <wpt lat="43.96382" lon="2.33556">
    <ele>395</ele>
    <name><![CDATA[À droite]]></name>
  </wpt>
  <wpt lat="43.96378" lon="2.33431">
    <ele>395</ele>
    <name><![CDATA[Place de l'église]]></name>
  </wpt>
  <trk>
    <name><![CDATA[Le sentier de la Méridienne version longue]]></name>
    <trkseg>
      <trkpt lat="43.96368" lon="2.33393">
        <ele>395</ele>
        <time>2021-04-24T21:43:39+02:00</time>
      </trkpt>
      <trkpt lat="43.96313" lon="2.33202">
        <ele>392</ele>
        <time>2021-04-24T21:43:44+02:00</time>
      </trkpt>
      <trkpt lat="43.96273" lon="2.33126">
        <ele>391</ele>
        <time>2021-04-24T21:43:49+02:00</time>
      </trkpt>
      <trkpt lat="43.96189" lon="2.33001">
        <ele>391</ele>
        <time>2021-04-24T21:43:54+02:00</time>
      </trkpt>
      <trkpt lat="43.96123" lon="2.32934">
        <ele>390</ele>
        <time>2021-04-24T21:43:59+02:00</time>
      </trkpt>
      <trkpt lat="43.96088" lon="2.32903">
        <ele>390</ele>
        <time>2021-04-24T21:44:04+02:00</time>
      </trkpt>
      <trkpt lat="43.95967" lon="2.32831">
        <ele>390</ele>
        <time>2021-04-24T21:44:09+02:00</time>
      </trkpt>
      <trkpt lat="43.95755" lon="2.32745">
        <ele>386</ele>
        <time>2021-04-24T21:44:14+02:00</time>
      </trkpt>
      <trkpt lat="43.95531" lon="2.3269">
        <ele>390</ele>
        <time>2021-04-24T21:44:19+02:00</time>
      </trkpt>
      <trkpt lat="43.95439" lon="2.32674">
        <ele>388</ele>
        <time>2021-04-24T21:44:24+02:00</time>
      </trkpt>
      <trkpt lat="43.95286" lon="2.32675">
        <ele>385</ele>
        <time>2021-04-24T21:44:29+02:00</time>
      </trkpt>
      <trkpt lat="43.95084" lon="2.32624">
        <ele>380</ele>
        <time>2021-04-24T21:44:34+02:00</time>
      </trkpt>
      <trkpt lat="43.95023" lon="2.326">
        <ele>380</ele>
        <time>2021-04-24T21:44:39+02:00</time>
      </trkpt>
      <trkpt lat="43.94968" lon="2.32597">
        <ele>381</ele>
        <time>2021-04-24T21:44:44+02:00</time>
      </trkpt>
      <trkpt lat="43.9493" lon="2.32606">
        <ele>384</ele>
        <time>2021-04-24T21:44:49+02:00</time>
      </trkpt>
      <trkpt lat="43.94913" lon="2.32599">
        <ele>385</ele>
        <time>2021-04-24T21:44:54+02:00</time>
      </trkpt>
      <trkpt lat="43.9487" lon="2.32401">
        <ele>385</ele>
        <time>2021-04-24T21:44:59+02:00</time>
      </trkpt>
      <trkpt lat="43.94845" lon="2.32331">
        <ele>385</ele>
        <time>2021-04-24T21:45:04+02:00</time>
      </trkpt>
      <trkpt lat="43.94781" lon="2.3221">
        <ele>377</ele>
        <time>2021-04-24T21:45:09+02:00</time>
      </trkpt>
      <trkpt lat="43.94701" lon="2.3211">
        <ele>373</ele>
        <time>2021-04-24T21:45:14+02:00</time>
      </trkpt>
      <trkpt lat="43.94607" lon="2.31951">
        <ele>375</ele>
        <time>2021-04-24T21:45:19+02:00</time>
      </trkpt>
      <trkpt lat="43.94572" lon="2.31874">
        <ele>371</ele>
        <time>2021-04-24T21:45:24+02:00</time>
      </trkpt>
      <trkpt lat="43.94459" lon="2.31767">
        <ele>361</ele>
        <time>2021-04-24T21:45:29+02:00</time>
      </trkpt>
      <trkpt lat="43.94437" lon="2.317">
        <ele>356</ele>
        <time>2021-04-24T21:45:34+02:00</time>
      </trkpt>
      <trkpt lat="43.94429" lon="2.31644">
        <ele>349</ele>
        <time>2021-04-24T21:45:39+02:00</time>
      </trkpt>
      <trkpt lat="43.94403" lon="2.31585">
        <ele>338</ele>
        <time>2021-04-24T21:45:44+02:00</time>
      </trkpt>
      <trkpt lat="43.94368" lon="2.3155">
        <ele>330</ele>
        <time>2021-04-24T21:45:49+02:00</time>
      </trkpt>
      <trkpt lat="43.94347" lon="2.31542">
        <ele>329</ele>
        <time>2021-04-24T21:45:54+02:00</time>
      </trkpt>
      <trkpt lat="43.94269" lon="2.31541">
        <ele>319</ele>
        <time>2021-04-24T21:45:59+02:00</time>
      </trkpt>
      <trkpt lat="43.94238" lon="2.31533">
        <ele>310</ele>
        <time>2021-04-24T21:46:04+02:00</time>
      </trkpt>
      <trkpt lat="43.94191" lon="2.31543">
        <ele>299</ele>
        <time>2021-04-24T21:46:09+02:00</time>
      </trkpt>
      <trkpt lat="43.9418" lon="2.31491">
        <ele>288</ele>
        <time>2021-04-24T21:46:14+02:00</time>
      </trkpt>
      <trkpt lat="43.94201" lon="2.31443">
        <ele>283</ele>
        <time>2021-04-24T21:46:19+02:00</time>
      </trkpt>
      <trkpt lat="43.94261" lon="2.31354">
        <ele>266</ele>
        <time>2021-04-24T21:46:24+02:00</time>
      </trkpt>
      <trkpt lat="43.9422" lon="2.31359">
        <ele>263</ele>
        <time>2021-04-24T21:46:29+02:00</time>
      </trkpt>
      <trkpt lat="43.9426" lon="2.31282">
        <ele>242</ele>
        <time>2021-04-24T21:46:34+02:00</time>
      </trkpt>
      <trkpt lat="43.94306" lon="2.31261">
        <ele>234</ele>
        <time>2021-04-24T21:46:39+02:00</time>
      </trkpt>
      <trkpt lat="43.94327" lon="2.31203">
        <ele>224</ele>
        <time>2021-04-24T21:46:44+02:00</time>
      </trkpt>
      <trkpt lat="43.94305" lon="2.31121">
        <ele>213</ele>
        <time>2021-04-24T21:46:49+02:00</time>
      </trkpt>
      <trkpt lat="43.94391" lon="2.31153">
        <ele>220</ele>
        <time>2021-04-24T21:46:54+02:00</time>
      </trkpt>
      <trkpt lat="43.94468" lon="2.31217">
        <ele>226</ele>
        <time>2021-04-24T21:46:59+02:00</time>
      </trkpt>
      <trkpt lat="43.94528" lon="2.31149">
        <ele>221</ele>
        <time>2021-04-24T21:47:04+02:00</time>
      </trkpt>
      <trkpt lat="43.94528" lon="2.31095">
        <ele>217</ele>
        <time>2021-04-24T21:47:09+02:00</time>
      </trkpt>
      <trkpt lat="43.94548" lon="2.31039">
        <ele>211</ele>
        <time>2021-04-24T21:47:14+02:00</time>
      </trkpt>
      <trkpt lat="43.94789" lon="2.31101">
        <ele>214</ele>
        <time>2021-04-24T21:47:19+02:00</time>
      </trkpt>
      <trkpt lat="43.94791" lon="2.31031">
        <ele>216</ele>
        <time>2021-04-24T21:47:24+02:00</time>
      </trkpt>
      <trkpt lat="43.94772" lon="2.30943">
        <ele>219</ele>
        <time>2021-04-24T21:47:29+02:00</time>
      </trkpt>
      <trkpt lat="43.94789" lon="2.31106">
        <ele>215</ele>
        <time>2021-04-24T21:47:34+02:00</time>
      </trkpt>
      <trkpt lat="43.94534" lon="2.31033">
        <ele>211</ele>
        <time>2021-04-24T21:47:39+02:00</time>
      </trkpt>
      <trkpt lat="43.94415" lon="2.31011">
        <ele>212</ele>
        <time>2021-04-24T21:47:44+02:00</time>
      </trkpt>
      <trkpt lat="43.94295" lon="2.30887">
        <ele>204</ele>
        <time>2021-04-24T21:47:49+02:00</time>
      </trkpt>
      <trkpt lat="43.94261" lon="2.30775">
        <ele>199</ele>
        <time>2021-04-24T21:47:54+02:00</time>
      </trkpt>
      <trkpt lat="43.94261" lon="2.30649">
        <ele>191</ele>
        <time>2021-04-24T21:47:59+02:00</time>
      </trkpt>
      <trkpt lat="43.94214" lon="2.30668">
        <ele>188</ele>
        <time>2021-04-24T21:48:04+02:00</time>
      </trkpt>
      <trkpt lat="43.9417" lon="2.30659">
        <ele>193</ele>
        <time>2021-04-24T21:48:09+02:00</time>
      </trkpt>
      <trkpt lat="43.94204" lon="2.30895">
        <ele>202</ele>
        <time>2021-04-24T21:48:14+02:00</time>
      </trkpt>
      <trkpt lat="43.94249" lon="2.31043">
        <ele>205</ele>
        <time>2021-04-24T21:48:19+02:00</time>
      </trkpt>
      <trkpt lat="43.94222" lon="2.3107">
        <ele>208</ele>
        <time>2021-04-24T21:48:24+02:00</time>
      </trkpt>
      <trkpt lat="43.9418" lon="2.31091">
        <ele>219</ele>
        <time>2021-04-24T21:48:29+02:00</time>
      </trkpt>
      <trkpt lat="43.94186" lon="2.31137">
        <ele>225</ele>
        <time>2021-04-24T21:48:34+02:00</time>
      </trkpt>
      <trkpt lat="43.94063" lon="2.31162">
        <ele>245</ele>
        <time>2021-04-24T21:48:39+02:00</time>
      </trkpt>
      <trkpt lat="43.94065" lon="2.31258">
        <ele>257</ele>
        <time>2021-04-24T21:48:44+02:00</time>
      </trkpt>
      <trkpt lat="43.9399" lon="2.3125">
        <ele>272</ele>
        <time>2021-04-24T21:48:49+02:00</time>
      </trkpt>
      <trkpt lat="43.9393" lon="2.31302">
        <ele>291</ele>
        <time>2021-04-24T21:48:54+02:00</time>
      </trkpt>
      <trkpt lat="43.9386" lon="2.31466">
        <ele>311</ele>
        <time>2021-04-24T21:48:59+02:00</time>
      </trkpt>
      <trkpt lat="43.93705" lon="2.31401">
        <ele>320</ele>
        <time>2021-04-24T21:49:04+02:00</time>
      </trkpt>
      <trkpt lat="43.9365" lon="2.31527">
        <ele>298</ele>
        <time>2021-04-24T21:49:09+02:00</time>
      </trkpt>
      <trkpt lat="43.93663" lon="2.31613">
        <ele>299</ele>
        <time>2021-04-24T21:49:14+02:00</time>
      </trkpt>
      <trkpt lat="43.93608" lon="2.31703">
        <ele>275</ele>
        <time>2021-04-24T21:49:19+02:00</time>
      </trkpt>
      <trkpt lat="43.93602" lon="2.31642">
        <ele>260</ele>
        <time>2021-04-24T21:49:24+02:00</time>
      </trkpt>
      <trkpt lat="43.93551" lon="2.31758">
        <ele>233</ele>
        <time>2021-04-24T21:49:29+02:00</time>
      </trkpt>
      <trkpt lat="43.93523" lon="2.31859">
        <ele>218</ele>
        <time>2021-04-24T21:49:34+02:00</time>
      </trkpt>
      <trkpt lat="43.93526" lon="2.31753">
        <ele>216</ele>
        <time>2021-04-24T21:49:39+02:00</time>
      </trkpt>
      <trkpt lat="43.93468" lon="2.31853">
        <ele>196</ele>
        <time>2021-04-24T21:49:44+02:00</time>
      </trkpt>
      <trkpt lat="43.93411" lon="2.31882">
        <ele>186</ele>
        <time>2021-04-24T21:49:49+02:00</time>
      </trkpt>
      <trkpt lat="43.93402" lon="2.31914">
        <ele>185</ele>
        <time>2021-04-24T21:49:54+02:00</time>
      </trkpt>
      <trkpt lat="43.93388" lon="2.32101">
        <ele>186</ele>
        <time>2021-04-24T21:49:59+02:00</time>
      </trkpt>
      <trkpt lat="43.93327" lon="2.32559">
        <ele>187</ele>
        <time>2021-04-24T21:50:04+02:00</time>
      </trkpt>
      <trkpt lat="43.93327" lon="2.32701">
        <ele>189</ele>
        <time>2021-04-24T21:50:09+02:00</time>
      </trkpt>
      <trkpt lat="43.93346" lon="2.32928">
        <ele>190</ele>
        <time>2021-04-24T21:50:14+02:00</time>
      </trkpt>
      <trkpt lat="43.93389" lon="2.33035">
        <ele>192</ele>
        <time>2021-04-24T21:50:19+02:00</time>
      </trkpt>
      <trkpt lat="43.93448" lon="2.33106">
        <ele>194</ele>
        <time>2021-04-24T21:50:24+02:00</time>
      </trkpt>
      <trkpt lat="43.93486" lon="2.33122">
        <ele>197</ele>
        <time>2021-04-24T21:50:29+02:00</time>
      </trkpt>
      <trkpt lat="43.93569" lon="2.33183">
        <ele>196</ele>
        <time>2021-04-24T21:50:34+02:00</time>
      </trkpt>
      <trkpt lat="43.93562" lon="2.33223">
        <ele>197</ele>
        <time>2021-04-24T21:50:39+02:00</time>
      </trkpt>
      <trkpt lat="43.93593" lon="2.33287">
        <ele>203</ele>
        <time>2021-04-24T21:50:44+02:00</time>
      </trkpt>
      <trkpt lat="43.93683" lon="2.33421">
        <ele>220</ele>
        <time>2021-04-24T21:50:49+02:00</time>
      </trkpt>
      <trkpt lat="43.93791" lon="2.33491">
        <ele>219</ele>
        <time>2021-04-24T21:50:54+02:00</time>
      </trkpt>
      <trkpt lat="43.93825" lon="2.33549">
        <ele>220</ele>
        <time>2021-04-24T21:50:59+02:00</time>
      </trkpt>
      <trkpt lat="43.93817" lon="2.33627">
        <ele>230</ele>
        <time>2021-04-24T21:51:04+02:00</time>
      </trkpt>
      <trkpt lat="43.93805" lon="2.33712">
        <ele>230</ele>
        <time>2021-04-24T21:51:09+02:00</time>
      </trkpt>
      <trkpt lat="43.93817" lon="2.33796">
        <ele>238</ele>
        <time>2021-04-24T21:51:14+02:00</time>
      </trkpt>
      <trkpt lat="43.93893" lon="2.33911">
        <ele>248</ele>
        <time>2021-04-24T21:51:19+02:00</time>
      </trkpt>
      <trkpt lat="43.93969" lon="2.34141">
        <ele>265</ele>
        <time>2021-04-24T21:51:24+02:00</time>
      </trkpt>
      <trkpt lat="43.93985" lon="2.34476">
        <ele>278</ele>
        <time>2021-04-24T21:51:29+02:00</time>
      </trkpt>
      <trkpt lat="43.94058" lon="2.34569">
        <ele>281</ele>
        <time>2021-04-24T21:51:34+02:00</time>
      </trkpt>
      <trkpt lat="43.94101" lon="2.34664">
        <ele>290</ele>
        <time>2021-04-24T21:51:39+02:00</time>
      </trkpt>
      <trkpt lat="43.94169" lon="2.34699">
        <ele>288</ele>
        <time>2021-04-24T21:51:44+02:00</time>
      </trkpt>
      <trkpt lat="43.94219" lon="2.34775">
        <ele>295</ele>
        <time>2021-04-24T21:51:49+02:00</time>
      </trkpt>
      <trkpt lat="43.94131" lon="2.3471">
        <ele>301</ele>
        <time>2021-04-24T21:51:54+02:00</time>
      </trkpt>
      <trkpt lat="43.94028" lon="2.34701">
        <ele>315</ele>
        <time>2021-04-24T21:51:59+02:00</time>
      </trkpt>
      <trkpt lat="43.93911" lon="2.346">
        <ele>325</ele>
        <time>2021-04-24T21:52:04+02:00</time>
      </trkpt>
      <trkpt lat="43.94095" lon="2.34839">
        <ele>346</ele>
        <time>2021-04-24T21:52:09+02:00</time>
      </trkpt>
      <trkpt lat="43.9412" lon="2.34993">
        <ele>353</ele>
        <time>2021-04-24T21:52:14+02:00</time>
      </trkpt>
      <trkpt lat="43.94204" lon="2.35012">
        <ele>362</ele>
        <time>2021-04-24T21:52:19+02:00</time>
      </trkpt>
      <trkpt lat="43.94286" lon="2.34969">
        <ele>362</ele>
        <time>2021-04-24T21:52:24+02:00</time>
      </trkpt>
      <trkpt lat="43.94435" lon="2.3499">
        <ele>376</ele>
        <time>2021-04-24T21:52:29+02:00</time>
      </trkpt>
      <trkpt lat="43.94466" lon="2.35368">
        <ele>395</ele>
        <time>2021-04-24T21:52:34+02:00</time>
      </trkpt>
      <trkpt lat="43.94556" lon="2.35385">
        <ele>403</ele>
        <time>2021-04-24T21:52:39+02:00</time>
      </trkpt>
      <trkpt lat="43.94657" lon="2.35382">
        <ele>408</ele>
        <time>2021-04-24T21:52:44+02:00</time>
      </trkpt>
      <trkpt lat="43.94749" lon="2.35436">
        <ele>412</ele>
        <time>2021-04-24T21:52:49+02:00</time>
      </trkpt>
      <trkpt lat="43.94875" lon="2.35504">
        <ele>415</ele>
        <time>2021-04-24T21:52:54+02:00</time>
      </trkpt>
      <trkpt lat="43.94971" lon="2.35534">
        <ele>415</ele>
        <time>2021-04-24T21:52:59+02:00</time>
      </trkpt>
      <trkpt lat="43.95127" lon="2.3558">
        <ele>417</ele>
        <time>2021-04-24T21:53:04+02:00</time>
      </trkpt>
      <trkpt lat="43.95254" lon="2.35648">
        <ele>415</ele>
        <time>2021-04-24T21:53:09+02:00</time>
      </trkpt>
      <trkpt lat="43.95342" lon="2.35728">
        <ele>413</ele>
        <time>2021-04-24T21:53:14+02:00</time>
      </trkpt>
      <trkpt lat="43.95419" lon="2.35711">
        <ele>415</ele>
        <time>2021-04-24T21:53:19+02:00</time>
      </trkpt>
      <trkpt lat="43.955" lon="2.35764">
        <ele>415</ele>
        <time>2021-04-24T21:53:24+02:00</time>
      </trkpt>
      <trkpt lat="43.95523" lon="2.35683">
        <ele>413</ele>
        <time>2021-04-24T21:53:29+02:00</time>
      </trkpt>
      <trkpt lat="43.95611" lon="2.35494">
        <ele>410</ele>
        <time>2021-04-24T21:53:34+02:00</time>
      </trkpt>
      <trkpt lat="43.95711" lon="2.35424">
        <ele>398</ele>
        <time>2021-04-24T21:53:39+02:00</time>
      </trkpt>
      <trkpt lat="43.95809" lon="2.35505">
        <ele>380</ele>
        <time>2021-04-24T21:53:44+02:00</time>
      </trkpt>
      <trkpt lat="43.9586" lon="2.35431">
        <ele>369</ele>
        <time>2021-04-24T21:53:49+02:00</time>
      </trkpt>
      <trkpt lat="43.95802" lon="2.35363">
        <ele>363</ele>
        <time>2021-04-24T21:53:54+02:00</time>
      </trkpt>
      <trkpt lat="43.95873" lon="2.35274">
        <ele>335</ele>
        <time>2021-04-24T21:53:59+02:00</time>
      </trkpt>
      <trkpt lat="43.95857" lon="2.35007">
        <ele>303</ele>
        <time>2021-04-24T21:54:04+02:00</time>
      </trkpt>
      <trkpt lat="43.95933" lon="2.34868">
        <ele>254</ele>
        <time>2021-04-24T21:54:09+02:00</time>
      </trkpt>
      <trkpt lat="43.95869" lon="2.34737">
        <ele>266</ele>
        <time>2021-04-24T21:54:14+02:00</time>
      </trkpt>
      <trkpt lat="43.96011" lon="2.34695">
        <ele>298</ele>
        <time>2021-04-24T21:54:19+02:00</time>
      </trkpt>
      <trkpt lat="43.96066" lon="2.34607">
        <ele>323</ele>
        <time>2021-04-24T21:54:24+02:00</time>
      </trkpt>
      <trkpt lat="43.96137" lon="2.34531">
        <ele>351</ele>
        <time>2021-04-24T21:54:29+02:00</time>
      </trkpt>
      <trkpt lat="43.96205" lon="2.34435">
        <ele>362</ele>
        <time>2021-04-24T21:54:34+02:00</time>
      </trkpt>
      <trkpt lat="43.96184" lon="2.34564">
        <ele>372</ele>
        <time>2021-04-24T21:54:39+02:00</time>
      </trkpt>
      <trkpt lat="43.96222" lon="2.34638">
        <ele>384</ele>
        <time>2021-04-24T21:54:44+02:00</time>
      </trkpt>
      <trkpt lat="43.96306" lon="2.3456">
        <ele>395</ele>
        <time>2021-04-24T21:54:49+02:00</time>
      </trkpt>
      <trkpt lat="43.96433" lon="2.34338">
        <ele>393</ele>
        <time>2021-04-24T21:54:54+02:00</time>
      </trkpt>
      <trkpt lat="43.96547" lon="2.34125">
        <ele>391</ele>
        <time>2021-04-24T21:54:59+02:00</time>
      </trkpt>
      <trkpt lat="43.96584" lon="2.33975">
        <ele>394</ele>
        <time>2021-04-24T21:55:04+02:00</time>
      </trkpt>
      <trkpt lat="43.96574" lon="2.33866">
        <ele>395</ele>
        <time>2021-04-24T21:55:09+02:00</time>
      </trkpt>
      <trkpt lat="43.96581" lon="2.33714">
        <ele>395</ele>
        <time>2021-04-24T21:55:14+02:00</time>
      </trkpt>
      <trkpt lat="43.96595" lon="2.33679">
        <ele>394</ele>
        <time>2021-04-24T21:55:19+02:00</time>
      </trkpt>
      <trkpt lat="43.96489" lon="2.33534">
        <ele>394</ele>
        <time>2021-04-24T21:55:24+02:00</time>
      </trkpt>
      <trkpt lat="43.96382" lon="2.33556">
        <ele>395</ele>
        <time>2021-04-24T21:55:29+02:00</time>
      </trkpt>
      <trkpt lat="43.96386" lon="2.33512">
        <ele>395</ele>
        <time>2021-04-24T21:55:34+02:00</time>
      </trkpt>
      <trkpt lat="43.96378" lon="2.33431">
        <ele>395</ele>
        <time>2021-04-24T21:55:39+02:00</time>
      </trkpt>
    </trkseg>
  </trk>
</gpx>